Time;durP1;ratioP1;P1;durP2;ratioP2;P2;SDS_P1;SDS_P2;PMS_P1;PMS_P2;Temp;Humidity;BMP_temperature;BMP_pressure;BME280_temperature;BME280_humidity;BME280_pressure;Samples;Min_cycle;Max_cycle;Signal;HPM_P1;HPM_P2
2022/02/02 00:00:18;;;;;;;2.40;2.30;;;-3.60;99.90;;;;;;6288998;28;20300;-75
2022/02/02 00:03:27;;;;;;;3.07;2.97;;;-3.60;99.90;;;;;;6288756;28;20275;-74
2022/02/02 00:06:38;;;;;;;2.80;2.70;;;-3.60;99.90;;;;;;6289522;28;20282;-74
2022/02/02 00:09:51;;;;;;;3.07;2.80;;;-3.60;99.90;;;;;;6289022;28;20296;-75
2022/02/02 00:13:02;;;;;;;2.60;2.50;;;-3.50;99.90;;;;;;6288896;28;20312;-75
2022/02/02 00:16:15;;;;;;;2.90;2.70;;;-3.40;99.90;;;;;;6288938;28;20275;-75
2022/02/02 00:19:36;;;;;;;3.07;2.97;;;-3.40;99.90;;;;;;6288264;28;20299;-75
2022/02/02 00:22:43;;;;;;;2.93;2.73;;;-3.30;99.90;;;;;;6289439;28;20270;-75
2022/02/02 00:25:53;;;;;;;2.93;2.73;;;-3.30;99.90;;;;;;6288184;28;20295;-75
2022/02/02 00:29:03;;;;;;;2.60;2.50;;;-3.20;99.90;;;;;;6295440;28;20290;-75
2022/02/02 00:32:18;;;;;;;2.40;2.40;;;-3.20;99.90;;;;;;6313477;28;20291;-75
2022/02/02 00:35:30;;;;;;;3.07;2.73;;;-3.20;99.90;;;;;;6314040;28;20298;-75
2022/02/02 00:38:35;;;;;;;2.97;2.80;;;-3.10;99.90;;;;;;6313780;28;20291;-75
2022/02/02 00:41:41;;;;;;;3.57;2.80;;;-3.10;99.90;;;;;;6314400;28;20279;-75
2022/02/02 00:44:52;;;;;;;2.87;2.70;;;-3.10;99.90;;;;;;6313554;28;20590;-75
2022/02/02 00:48:00;;;;;;;2.77;2.57;;;-3.00;99.90;;;;;;6313591;28;20474;-75
2022/02/02 00:51:07;;;;;;;2.40;2.30;;;-3.00;99.90;;;;;;6288263;28;20496;-75
2022/02/02 00:54:14;;;;;;;2.80;2.70;;;-3.00;99.90;;;;;;6288722;28;20301;-75
2022/02/02 00:57:19;;;;;;;2.70;2.60;;;-3.00;99.90;;;;;;6288981;28;20276;-75
2022/02/02 01:00:25;;;;;;;3.03;2.77;;;-3.00;99.90;;;;;;6288125;28;20457;-75
2022/02/02 01:03:31;;;;;;;3.87;2.83;;;-3.00;99.90;;;;;;6287469;28;20298;-75
2022/02/02 01:06:42;;;;;;;3.33;3.13;;;-2.90;99.90;;;;;;6288222;28;20271;-75
2022/02/02 01:09:53;;;;;;;2.30;2.30;;;-2.90;99.90;;;;;;6288269;28;20295;-75
2022/02/02 01:13:18;;;;;;;2.70;2.60;;;-2.90;99.90;;;;;;6287683;28;20292;-75
2022/02/02 01:19:45;;;;;;;3.20;3.10;;;-3.00;99.90;;;;;;6287375;28;20302;-75
2022/02/02 01:29:38;;;;;;;3.17;2.97;;;-3.10;99.90;;;;;;6261916;28;20300;-75
2022/02/02 01:32:43;;;;;;;4.10;3.20;;;-3.10;99.90;;;;;;6263068;28;20285;-75
2022/02/02 01:35:49;;;;;;;3.30;3.10;;;-3.20;99.90;;;;;;6262825;28;20296;-75
2022/02/02 01:38:58;;;;;;;4.00;3.23;;;-3.20;99.90;;;;;;6262750;28;20469;-75
2022/02/02 01:42:08;;;;;;;3.07;2.97;;;-3.20;99.90;;;;;;6263285;28;20298;-75
2022/02/02 01:45:18;;;;;;;3.00;2.83;;;-3.30;99.90;;;;;;6261746;28;20308;-75
2022/02/02 01:48:31;;;;;;;3.30;3.10;;;-3.30;99.90;;;;;;6261611;28;20273;-75
2022/02/02 01:51:56;;;;;;;2.90;2.70;;;-3.30;99.90;;;;;;6262781;28;20348;-75
2022/02/02 01:55:07;;;;;;;2.87;2.77;;;-3.30;99.90;;;;;;6262262;28;20301;-75
2022/02/02 02:01:56;;;;;;;3.03;2.83;;;-3.30;99.90;;;;;;6333992;28;20755;-76
2022/02/02 02:05:02;;;;;;;3.10;2.80;;;-3.40;99.90;;;;;;6276522;27;20308;-76
2022/02/02 02:08:07;;;;;;;3.53;3.07;;;-3.40;99.90;;;;;;6258707;28;20579;-77
2022/02/02 02:11:17;;;;;;;3.90;3.40;;;-3.40;99.90;;;;;;6282926;28;20279;-76
2022/02/02 02:14:46;;;;;;;4.63;2.90;;;-3.40;99.90;;;;;;6282790;28;20292;-76
2022/02/02 02:17:53;;;;;;;3.10;2.93;;;-3.50;99.90;;;;;;6283728;28;20277;-76
2022/02/02 02:20:58;;;;;;;3.40;3.10;;;-3.50;99.90;;;;;;6282433;28;20299;-76
2022/02/02 02:24:05;;;;;;;3.17;2.97;;;-3.50;99.90;;;;;;6282735;28;20296;-76
2022/02/02 02:27:13;;;;;;;3.50;3.20;;;-3.60;99.90;;;;;;6282363;28;20274;-76
2022/02/02 02:30:28;;;;;;;3.20;3.00;;;-3.60;99.90;;;;;;6282879;28;20302;-76
2022/02/02 02:33:52;;;;;;;3.30;3.10;;;-3.60;99.90;;;;;;6282018;28;20288;-76
2022/02/02 02:37:26;;;;;;;3.53;3.23;;;-3.60;99.90;;;;;;6283182;28;20277;-76
2022/02/02 02:55:47;;;;;;;2.93;2.80;;;-3.60;99.90;;;;;;6282077;28;20607;-76
2022/02/02 02:57:45;;;;;;;2.80;2.70;;;-3.80;99.90;;;;;;6282349;28;20564;-76
2022/02/02 03:01:11;;;;;;;3.50;3.20;;;-3.80;99.90;;;;;;6282184;28;20458;-76
2022/02/02 03:29:46;;;;;;;3.30;3.20;;;-3.90;99.90;;;;;;6265256;28;20579;-76
2022/02/02 03:32:15;;;;;;;2.93;2.83;;;-3.90;99.90;;;;;;6239657;28;20279;-76
2022/02/02 03:49:16;;;;;;;3.20;3.00;;;-3.90;99.90;;;;;;6239432;28;20474;-76
2022/02/02 03:53:03;;;;;;;3.70;3.37;;;-3.70;99.90;;;;;;6240404;28;20268;-76
2022/02/02 03:56:28;;;;;;;3.03;2.83;;;-3.70;99.90;;;;;;6239052;28;20305;-76
2022/02/02 03:59:42;;;;;;;3.13;2.93;;;-3.60;99.90;;;;;;6238822;28;20311;-75
2022/02/02 04:03:03;;;;;;;3.43;3.10;;;-3.50;99.90;;;;;;6239889;28;20300;-76
2022/02/02 04:06:18;;;;;;;3.10;2.93;;;-3.50;99.90;;;;;;6263519;28;20271;-76
2022/02/02 04:09:23;;;;;;;3.97;3.53;;;-3.50;99.90;;;;;;6253427;28;20301;-76
2022/02/02 04:12:41;;;;;;;3.43;3.23;;;-3.40;99.90;;;;;;6239105;28;20277;-76
2022/02/02 04:57:15;;;;;;;6.07;3.63;;;-3.20;99.90;;;;;;6262882;28;20278;-76
2022/02/02 05:04:21;;;;;;;2.93;2.80;;;-3.20;99.90;;;;;;6377103;27;20796;-76
2022/02/02 05:07:32;;;;;;;3.37;3.17;;;-3.30;99.90;;;;;;6332754;28;20275;-76
2022/02/02 05:10:48;;;;;;;3.23;3.03;;;-3.20;99.90;;;;;;6333115;28;20295;-76
2022/02/02 05:17:39;;;;;;;3.57;3.37;;;-3.20;99.90;;;;;;6333677;28;20426;-76
2022/02/02 05:21:29;;;;;;;6.00;3.73;;;-3.20;99.90;;;;;;6331932;28;20294;-75
2022/02/02 05:48:51;;;;;;;3.90;3.60;;;-3.40;99.90;;;;;;6319732;28;20467;-75
2022/02/02 05:51:57;;;;;;;5.47;3.50;;;-3.50;99.90;;;;;;6332772;28;20274;-76
2022/02/02 05:55:05;;;;;;;5.57;3.83;;;-3.50;99.90;;;;;;6331958;28;20299;-75
2022/02/02 05:58:13;;;;;;;4.80;4.43;;;-3.60;99.90;;;;;;6330548;28;20262;-76
2022/02/02 06:01:19;;;;;;;6.33;4.30;;;-3.60;99.90;;;;;;6331308;28;20479;-75
2022/02/02 06:04:27;;;;;;;7.50;4.10;;;-3.60;99.90;;;;;;6331565;28;20293;-75
2022/02/02 06:07:35;;;;;;;7.03;3.70;;;-3.70;99.90;;;;;;6331891;28;20290;-75
2022/02/02 06:10:43;;;;;;;7.27;4.10;;;-3.70;99.90;;;;;;6331286;28;20578;-75
2022/02/02 06:13:54;;;;;;;3.70;3.40;;;-3.70;99.90;;;;;;6322383;28;20295;-75
2022/02/02 06:17:04;;;;;;;4.53;4.10;;;-3.70;99.90;;;;;;6315136;28;20283;-75
2022/02/02 06:20:15;;;;;;;4.80;3.60;;;-3.70;99.90;;;;;;6314163;28;20369;-76
2022/02/02 06:23:28;;;;;;;3.80;3.50;;;-3.60;99.90;;;;;;6313391;28;20291;-76
2022/02/02 06:26:35;;;;;;;3.93;3.67;;;-3.60;99.90;;;;;;6313778;28;20270;-77
2022/02/02 06:29:44;;;;;;;6.47;3.87;;;-3.40;99.90;;;;;;6313936;28;20290;-75
2022/02/02 06:32:52;;;;;;;7.53;4.07;;;-3.40;99.90;;;;;;6314166;28;20270;-75
2022/02/02 06:35:58;;;;;;;4.27;3.87;;;-3.40;99.90;;;;;;6314339;28;20294;-75
2022/02/02 06:39:05;;;;;;;4.47;4.07;;;-3.30;99.90;;;;;;6313146;28;20294;-76
2022/02/02 06:42:14;;;;;;;4.33;3.93;;;-3.30;99.90;;;;;;6313503;28;20291;-75
2022/02/02 06:45:21;;;;;;;5.53;4.10;;;-3.40;99.90;;;;;;6313807;28;20605;-75
2022/02/02 06:48:28;;;;;;;4.50;4.10;;;-3.40;99.90;;;;;;6312737;28;20263;-76
2022/02/02 06:51:38;;;;;;;5.47;3.97;;;-3.30;99.90;;;;;;6313555;28;20275;-76
2022/02/02 06:54:55;;;;;;;3.80;3.30;;;-3.30;99.90;;;;;;6313436;28;20298;-75
2022/02/02 06:58:20;;;;;;;3.90;3.50;;;-3.30;99.80;;;;;;6313231;28;20272;-76
2022/02/02 07:01:40;;;;;;;3.87;3.63;;;-3.30;99.50;;;;;;6312471;28;20299;-76
2022/02/02 07:08:30;;;;;;;6.37;4.30;;;-3.30;99.30;;;;;;6288154;28;20563;-76
2022/02/02 07:11:51;;;;;;;4.20;3.83;;;-3.30;99.60;;;;;;6288411;28;20426;-75
2022/02/02 07:15:15;;;;;;;4.13;3.73;;;-3.30;99.50;;;;;;6288671;28;20303;-75
2022/02/02 07:18:31;;;;;;;4.43;4.07;;;-3.30;99.50;;;;;;6288307;28;20272;-75
2022/02/02 07:21:58;;;;;;;5.80;4.30;;;-3.40;99.60;;;;;;6288135;28;20456;-76
2022/02/02 07:28:31;;;;;;;6.97;3.97;;;-3.40;99.40;;;;;;6287539;28;20278;-75
2022/02/02 07:31:51;;;;;;;5.17;4.17;;;-3.30;99.40;;;;;;6288467;28;20274;-76
2022/02/02 07:35:09;;;;;;;6.40;4.40;;;-3.30;99.40;;;;;;6287953;28;20582;-76
2022/02/02 07:38:16;;;;;;;5.47;3.73;;;-3.20;99.40;;;;;;6288091;28;20443;-77
2022/02/02 07:41:26;;;;;;;4.47;4.03;;;-3.30;99.50;;;;;;6287756;28;20579;-75
2022/02/02 07:44:37;;;;;;;5.10;4.53;;;-3.30;99.70;;;;;;6287103;28;20309;-75
2022/02/02 07:47:47;;;;;;;4.20;3.90;;;-3.50;99.90;;;;;;6287577;28;20291;-75
2022/02/02 07:50:54;;;;;;;4.30;3.83;;;-3.50;99.90;;;;;;6287902;28;20291;-75
2022/02/02 07:54:03;;;;;;;6.63;4.37;;;-3.50;99.90;;;;;;6287028;28;20302;-75
2022/02/02 07:57:14;;;;;;;6.20;4.60;;;-3.50;99.90;;;;;;6287676;28;20271;-75
2022/02/02 08:00:22;;;;;;;5.57;4.10;;;-3.60;99.90;;;;;;6287114;28;20302;-77
2022/02/02 08:03:37;;;;;;;4.00;3.80;;;-3.60;99.90;;;;;;6286163;28;20307;-74
2022/02/02 08:06:48;;;;;;;7.87;4.60;;;-3.50;99.90;;;;;;6286841;28;20280;-75
2022/02/02 08:10:06;;;;;;;5.60;3.77;;;-3.60;99.90;;;;;;6286895;28;20310;-74
2022/02/02 08:13:17;;;;;;;4.33;3.93;;;-3.70;99.90;;;;;;6285379;28;20272;-74
2022/02/02 08:16:23;;;;;;;6.47;4.53;;;-3.70;99.90;;;;;;6286680;28;20462;-74
2022/02/02 08:19:31;;;;;;;7.40;4.43;;;-3.70;99.90;;;;;;6286338;28;20298;-75
2022/02/02 08:22:39;;;;;;;9.37;4.07;;;-3.70;99.90;;;;;;6287595;28;20535;-75
2022/02/02 08:25:44;;;;;;;9.37;4.30;;;-3.70;99.90;;;;;;6286700;28;20382;-75
2022/02/02 08:28:52;;;;;;;6.33;4.30;;;-3.60;99.90;;;;;;6285905;28;20291;-75
2022/02/02 08:31:58;;;;;;;6.67;4.10;;;-3.60;99.90;;;;;;6286382;28;20272;-76
2022/02/02 08:35:06;;;;;;;10.17;4.60;;;-3.70;99.90;;;;;;6286246;28;20303;-75
2022/02/02 08:38:17;;;;;;;5.57;5.07;;;-3.60;99.90;;;;;;6285375;28;20267;-76
2022/02/02 08:41:28;;;;;;;9.63;4.50;;;-3.70;99.90;;;;;;6286454;28;20272;-75
2022/02/02 08:44:47;;;;;;;10.47;3.93;;;-3.70;99.90;;;;;;6286306;28;20295;-76
2022/02/02 08:47:57;;;;;;;6.30;4.67;;;-3.60;99.90;;;;;;6285898;28;20272;-76
2022/02/02 08:51:07;;;;;;;7.93;4.43;;;-3.50;99.90;;;;;;6286473;28;20303;-76
2022/02/02 08:54:21;;;;;;;4.47;4.00;;;-3.50;99.90;;;;;;6285752;28;20302;-76
2022/02/02 08:57:41;;;;;;;5.97;4.43;;;-3.40;99.90;;;;;;6286463;28;20394;-75
2022/02/02 09:00:48;;;;;;;8.87;4.70;;;-3.40;99.90;;;;;;6285930;28;20300;-76
2022/02/02 09:07:18;;;;;;;5.10;4.60;;;-3.30;99.90;;;;;;6286551;28;20271;-76
2022/02/02 09:19:59;;;;;;;8.00;4.50;;;-3.20;99.90;;;;;;6285308;28;20298;-75
2022/02/02 09:21:26;;;;;;;7.23;4.13;;;-2.70;99.90;;;;;;6305993;28;20570;-75
2022/02/02 09:24:23;;;;;;;6.97;5.00;;;-2.70;99.90;;;;;;6307080;28;66759;-75
2022/02/02 09:34:17;;;;;;;5.83;4.70;;;-2.50;99.90;;;;;;6310010;28;20291;-75
2022/02/02 09:37:23;;;;;;;5.77;4.50;;;-2.60;99.90;;;;;;6311364;28;20274;-75
2022/02/02 09:41:12;;;;;;;6.93;4.60;;;-2.50;99.90;;;;;;6308243;28;20300;-75
2022/02/02 09:44:16;;;;;;;6.93;4.87;;;-2.50;99.90;;;;;;6308561;28;20292;-75
2022/02/02 09:47:26;;;;;;;4.87;4.10;;;-2.60;99.90;;;;;;6310065;28;20270;-75
2022/02/02 09:50:35;;;;;;;7.70;4.97;;;-2.50;99.90;;;;;;6312175;28;20303;-76
2022/02/02 09:53:46;;;;;;;7.50;4.30;;;-2.50;99.90;;;;;;6314090;28;20294;-76
2022/02/02 10:00:46;;;;;;;5.30;4.33;;;-2.50;99.90;;;;;;6287838;28;20292;-77
2022/02/02 10:04:18;;;;;;;6.20;4.33;;;-2.70;99.90;;;;;;6313947;28;20292;-75
2022/02/02 10:07:51;;;;;;;5.20;4.60;;;-2.80;99.90;;;;;;6314583;28;20270;-76
2022/02/02 10:11:06;;;;;;;9.97;4.53;;;-2.80;99.90;;;;;;6314583;28;20298;-76
2022/02/02 10:14:38;;;;;;;5.23;4.23;;;-2.80;99.90;;;;;;6313795;28;20602;-76
2022/02/02 10:17:44;;;;;;;4.37;4.03;;;-2.80;99.90;;;;;;6314027;28;20291;-76
2022/02/02 10:20:52;;;;;;;6.20;4.03;;;-2.90;99.90;;;;;;6313644;28;20294;-76
2022/02/02 10:23:58;;;;;;;6.80;4.63;;;-2.90;99.90;;;;;;6313745;28;20296;-76
2022/02/02 10:27:03;;;;;;;4.30;3.90;;;-2.90;99.90;;;;;;6314244;28;20292;-76
2022/02/02 10:30:14;;;;;;;8.53;4.33;;;-2.90;99.90;;;;;;6313803;28;20296;-76
2022/02/02 10:33:24;;;;;;;3.80;3.60;;;-2.90;99.90;;;;;;6313701;28;20426;-76
2022/02/02 10:36:30;;;;;;;4.27;3.87;;;-2.90;99.90;;;;;;6314033;28;20276;-76
2022/02/02 10:39:47;;;;;;;4.07;3.83;;;-2.80;99.90;;;;;;6313326;28;20572;-76
2022/02/02 10:42:52;;;;;;;4.17;3.90;;;-2.70;99.90;;;;;;6314906;28;20275;-76
2022/02/02 10:46:09;;;;;;;4.73;3.47;;;-2.80;99.90;;;;;;6313343;28;20481;-76
2022/02/02 10:49:21;;;;;;;4.90;4.23;;;-2.70;99.90;;;;;;6313606;28;20296;-76
2022/02/02 10:52:40;;;;;;;5.03;3.40;;;-2.70;99.90;;;;;;6314441;28;20267;-76
2022/02/02 11:09:27;;;;;;;5.13;4.20;;;-2.40;99.70;;;;;;6312766;28;20292;-75
2022/02/02 11:12:38;;;;;;;5.77;3.50;;;-2.40;99.60;;;;;;6312748;28;20271;-75
2022/02/02 11:15:49;;;;;;;3.87;3.53;;;-2.40;99.40;;;;;;6312420;28;20491;-75
2022/02/02 11:18:56;;;;;;;4.87;3.63;;;-2.40;99.80;;;;;;6313524;28;20291;-76
2022/02/02 11:22:30;;;;;;;4.53;3.47;;;-2.30;99.60;;;;;;6313070;28;20292;-76
2022/02/02 11:25:41;;;;;;;3.80;3.40;;;-2.30;99.50;;;;;;6312413;28;20303;-77
2022/02/02 11:28:50;;;;;;;3.60;3.30;;;-2.30;99.40;;;;;;6312001;28;20294;-76
2022/02/02 11:32:05;;;;;;;3.80;3.50;;;-2.30;99.20;;;;;;6312927;28;20276;-76
2022/02/02 11:35:36;;;;;;;3.40;3.23;;;-2.30;99.20;;;;;;6312417;28;20299;-76
2022/02/02 11:39:05;;;;;;;4.13;3.77;;;-2.20;99.30;;;;;;6312296;28;20481;-76
2022/02/02 11:42:47;;;;;;;4.20;3.90;;;-2.10;99.30;;;;;;6313464;28;20296;-77
2022/02/02 11:45:56;;;;;;;3.53;3.33;;;-2.10;98.80;;;;;;6312452;28;20475;-77
2022/02/02 11:49:08;;;;;;;3.50;3.20;;;-2.00;99.10;;;;;;6311842;28;20578;-77
2022/02/02 11:52:45;;;;;;;3.00;2.73;;;-2.00;99.00;;;;;;6311961;28;20273;-75
2022/02/02 11:56:05;;;;;;;6.40;3.43;;;-2.10;98.70;;;;;;6214564;28;20298;-77
2022/02/02 11:59:54;;;;;;;6.23;3.47;;;-2.10;98.40;;;;;;6311845;28;20298;-76
2022/02/02 12:03:22;;;;;;;3.73;3.40;;;-2.00;98.30;;;;;;6311768;28;20305;-75
2022/02/02 12:06:54;;;;;;;6.53;3.33;;;-2.00;98.40;;;;;;6310359;28;20296;-76
2022/02/02 12:10:05;;;;;;;3.00;2.87;;;-2.00;98.60;;;;;;6311042;28;20304;-76
2022/02/02 12:48:02;;;;;;;5.60;3.60;;;-2.10;98.10;;;;;;6312331;28;20297;-76
2022/02/02 12:58:03;;;;;;;3.83;3.53;;;-2.20;97.30;;;;;;6255424;28;20280;-76
2022/02/02 13:01:20;;;;;;;2.87;2.67;;;-2.20;97.40;;;;;;6310097;28;20281;-76
2022/02/02 13:04:30;;;;;;;3.00;2.80;;;-2.20;97.30;;;;;;6310541;28;20588;-76
2022/02/02 13:07:36;;;;;;;4.37;3.17;;;-2.20;97.50;;;;;;6311225;28;20287;-76
2022/02/02 13:10:42;;;;;;;3.67;3.10;;;-2.20;97.80;;;;;;6311046;28;20580;-76
2022/02/02 13:13:48;;;;;;;4.00;2.67;;;-2.10;97.60;;;;;;6310910;28;20291;-77
2022/02/02 13:17:03;;;;;;;3.57;3.33;;;-2.10;97.60;;;;;;6311426;28;20277;-76
2022/02/02 13:20:12;;;;;;;3.67;3.40;;;-2.10;97.70;;;;;;6310503;28;20290;-76
2022/02/02 13:23:24;;;;;;;3.20;2.60;;;-2.10;97.50;;;;;;6311710;28;20271;-76
2022/02/02 13:26:35;;;;;;;3.30;3.00;;;-2.20;97.50;;;;;;6316179;28;20550;-78
2022/02/02 13:29:46;;;;;;;6.20;2.93;;;-2.10;97.60;;;;;;6315482;28;20302;-77
2022/02/02 13:32:54;;;;;;;3.40;3.10;;;-2.00;97.80;;;;;;6315789;28;20271;-76
2022/02/02 13:36:20;;;;;;;4.77;2.90;;;-2.00;97.10;;;;;;6315483;28;20303;-76
2022/02/02 13:46:46;;;;;;;4.20;2.80;;;-2.00;96.80;;;;;;6315219;28;20274;-76
2022/02/02 13:50:43;;;;;;;2.93;2.73;;;-2.10;96.40;;;;;;6314789;28;20291;-76
2022/02/02 13:54:07;;;;;;;2.93;2.73;;;-2.20;96.40;;;;;;6314149;28;20297;-76
2022/02/02 13:57:57;;;;;;;3.77;2.73;;;-2.20;96.30;;;;;;6314321;28;20553;-76
2022/02/02 14:01:23;;;;;;;2.70;2.60;;;-2.20;96.50;;;;;;6313588;28;20275;-76
2022/02/02 14:04:44;;;;;;;3.00;2.40;;;-2.20;96.10;;;;;;6314526;28;20308;-76
2022/02/02 14:08:01;;;;;;;4.10;2.10;;;-2.20;95.20;;;;;;6315179;28;20292;-76
2022/02/02 14:25:34;;;;;;;2.20;2.10;;;-2.20;94.30;;;;;;6313983;28;20281;-76
2022/02/02 14:26:07;;;;;;;2.23;2.13;;;-2.10;94.10;;;;;;6296734;28;20296;-77
2022/02/02 14:32:37;;;;;;;5.37;1.87;;;-2.20;91.70;;;;;;6313978;28;20559;-76
2022/02/02 14:35:47;;;;;;;3.70;1.87;;;-2.20;91.40;;;;;;6305585;28;20303;-76
2022/02/02 14:38:58;;;;;;;2.07;1.93;;;-2.10;88.10;;;;;;6295060;28;20304;-77
2022/02/02 14:42:11;;;;;;;5.07;2.10;;;-2.10;88.70;;;;;;6313963;28;20269;-76
2022/02/02 14:45:20;;;;;;;6.27;2.30;;;-2.10;88.20;;;;;;6313622;28;20303;-76
2022/02/02 14:48:30;;;;;;;3.80;2.00;;;-2.10;88.80;;;;;;6313309;28;20292;-76
2022/02/02 14:55:36;;;;;;;7.17;1.97;;;-2.10;90.00;;;;;;6313334;28;20456;-76
2022/02/02 15:29:57;;;;;;;1.90;1.70;;;-2.40;83.00;;;;;;6309974;28;20300;-76
2022/02/02 15:33:11;;;;;;;1.87;1.77;;;-2.50;88.10;;;;;;6312508;28;20269;-76
2022/02/02 15:37:19;;;;;;;8.33;1.87;;;-2.60;90.20;;;;;;6312676;28;20277;-76
2022/02/02 15:40:04;;;;;;;4.50;1.40;;;-2.60;83.50;;;;;;6311870;28;20305;-76
2022/02/02 15:43:24;;;;;;;7.93;1.80;;;-2.70;83.60;;;;;;6311758;28;20453;-77
2022/02/02 16:01:08;;;;;;;4.03;1.63;;;-2.90;89.30;;;;;;6235427;28;20611;-76
2022/02/02 16:04:01;;;;;;;6.70;2.10;;;-3.00;90.50;;;;;;6311247;28;20300;-76
2022/02/02 16:07:11;;;;;;;5.60;1.77;;;-3.10;93.40;;;;;;6311324;28;20574;-76
2022/02/02 16:10:26;;;;;;;7.10;2.00;;;-3.10;94.80;;;;;;6311592;28;20466;-76
2022/02/02 16:13:36;;;;;;;4.77;1.90;;;-3.10;95.50;;;;;;6311155;28;20290;-76
2022/02/02 16:17:03;;;;;;;5.80;2.37;;;-3.20;96.00;;;;;;6312303;28;20563;-76
2022/02/02 16:37:26;;;;;;;5.33;2.13;;;-3.20;96.90;;;;;;6311704;28;20270;-76
2022/02/02 16:40:35;;;;;;;4.20;1.70;;;-3.20;96.80;;;;;;6311251;28;20299;-76
2022/02/02 16:43:40;;;;;;;2.30;2.20;;;-3.20;96.50;;;;;;6310715;28;20291;-76
2022/02/02 16:46:46;;;;;;;2.23;2.00;;;-3.20;96.80;;;;;;6311244;28;20432;-76
2022/02/02 16:49:51;;;;;;;2.47;2.30;;;-3.30;96.90;;;;;;6310645;28;20307;-76
2022/02/02 16:53:01;;;;;;;2.07;1.93;;;-3.30;96.90;;;;;;6311152;28;20265;-77
2022/02/02 16:56:15;;;;;;;1.67;1.67;;;-3.30;97.10;;;;;;6310934;28;20606;-76
2022/02/02 17:30:08;;;;;;;4.97;1.80;;;-3.30;96.90;;;;;;6310585;28;20571;-76
2022/02/02 17:33:20;;;;;;;2.17;2.07;;;-3.30;96.90;;;;;;6310609;28;20277;-77
2022/02/02 17:36:30;;;;;;;4.00;2.27;;;-3.40;96.80;;;;;;6311294;28;20506;-76
2022/02/02 17:39:44;;;;;;;2.20;2.13;;;-3.50;97.00;;;;;;6310631;28;20295;-76
2022/02/02 17:43:17;;;;;;;2.20;2.10;;;-3.50;97.20;;;;;;6310515;28;20267;-76
2022/02/02 18:14:46;;;;;;;7.40;2.70;;;-3.80;97.00;;;;;;6314668;28;20310;-75
2022/02/02 18:20:50;;;;;;;3.77;2.80;;;-4.00;97.30;;;;;;6314369;28;20303;-75
2022/02/02 18:24:01;;;;;;;2.40;2.10;;;-3.90;97.10;;;;;;6314306;28;20541;-74
2022/02/02 18:27:14;;;;;;;2.23;2.00;;;-3.90;97.10;;;;;;6314062;28;20279;-75
2022/02/02 18:30:34;;;;;;;2.23;2.13;;;-3.90;97.40;;;;;;6314337;28;20306;-75
2022/02/02 18:33:49;;;;;;;2.87;1.93;;;-3.90;97.30;;;;;;6313459;28;20444;-75
2022/02/02 18:37:13;;;;;;;2.57;2.13;;;-3.90;97.80;;;;;;6314065;28;20558;-76
2022/02/02 18:41:36;;;;;;;2.70;2.50;;;-3.80;97.70;;;;;;6314058;28;20462;-76
2022/02/02 18:47:40;;;;;;;2.63;2.50;;;-3.90;97.20;;;;;;6313997;28;20271;-76
2022/02/02 18:51:20;;;;;;;3.30;2.77;;;-3.90;97.50;;;;;;6313674;28;20567;-76
2022/02/02 18:54:39;;;;;;;5.47;2.67;;;-4.00;97.90;;;;;;6296080;28;20299;-77
2022/02/02 18:57:56;;;;;;;3.37;2.50;;;-4.10;98.50;;;;;;6314020;28;20270;-76
2022/02/02 19:01:17;;;;;;;3.00;2.80;;;-4.10;98.50;;;;;;6313073;28;20300;-77
2022/02/02 19:04:47;;;;;;;2.80;2.70;;;-4.20;98.70;;;;;;6313150;28;20291;-76
2022/02/02 19:08:13;;;;;;;3.30;3.10;;;-4.20;99.10;;;;;;6313936;28;20270;-75
2022/02/02 19:39:56;;;;;;;8.93;5.40;;;-4.50;99.30;;;;;;6312514;28;20295;-76
2022/02/02 19:53:12;;;;;;;8.27;5.53;;;-4.60;99.90;;;;;;6312037;28;20298;-76
2022/02/02 19:56:26;;;;;;;7.13;5.47;;;-4.70;99.90;;;;;;6312101;28;20317;-76
2022/02/02 20:03:31;;;;;;;11.07;5.03;;;-4.70;99.80;;;;;;6312549;28;20305;-77
2022/02/02 20:06:45;;;;;;;8.07;5.27;;;-4.70;99.70;;;;;;6311295;28;20278;-75
2022/02/02 20:10:00;;;;;;;10.63;5.37;;;-4.70;99.60;;;;;;6311573;28;20299;-74
2022/02/02 20:13:06;;;;;;;6.00;5.37;;;-4.80;99.70;;;;;;6311565;28;20295;-75
2022/02/02 20:16:11;;;;;;;7.90;5.30;;;-4.70;99.90;;;;;;6311797;28;20274;-76
2022/02/02 20:19:19;;;;;;;7.47;5.20;;;-4.60;99.50;;;;;;6310754;28;20422;-75
2022/02/02 20:22:28;;;;;;;10.63;5.63;;;-4.60;99.10;;;;;;6312135;28;20285;-77
2022/02/02 20:25:35;;;;;;;10.00;5.33;;;-4.60;99.30;;;;;;6310983;28;20305;-76
2022/02/02 20:28:40;;;;;;;6.73;5.30;;;-4.60;99.40;;;;;;6311127;28;20313;-76
2022/02/02 20:31:46;;;;;;;6.03;5.07;;;-4.60;99.30;;;;;;6310823;28;20293;-75
2022/02/02 20:34:53;;;;;;;6.50;4.90;;;-4.60;99.30;;;;;;6311276;28;20293;-76
2022/02/02 20:37:59;;;;;;;5.53;5.03;;;-4.60;99.30;;;;;;6311484;28;20553;-76
2022/02/02 20:41:05;;;;;;;5.83;5.20;;;-4.50;99.20;;;;;;6310610;28;20297;-76
2022/02/02 20:44:20;;;;;;;14.10;6.00;;;-4.40;99.10;;;;;;6310846;28;20302;-76
2022/02/02 21:01:40;;;;;;;7.53;5.40;;;-4.20;98.80;;;;;;6310434;28;20595;-76
2022/02/02 21:04:47;;;;;;;6.57;4.73;;;-4.10;98.70;;;;;;6310732;28;20298;-76
2022/02/02 21:08:22;;;;;;;11.63;5.20;;;-4.10;98.60;;;;;;6310508;28;20570;-76
2022/02/02 21:11:52;;;;;;;5.87;5.00;;;-4.00;98.60;;;;;;6310668;28;20576;-76
2022/02/02 21:14:59;;;;;;;5.30;4.30;;;-4.00;98.60;;;;;;6310559;28;20297;-76
2022/02/02 21:18:09;;;;;;;3.87;3.40;;;-3.90;98.50;;;;;;6310767;28;20299;-76
2022/02/02 21:21:22;;;;;;;5.40;3.90;;;-3.80;98.20;;;;;;6310047;28;20279;-76
2022/02/02 21:24:50;;;;;;;6.87;3.27;;;-3.80;97.50;;;;;;6310618;28;20311;-76
2022/02/02 21:27:57;;;;;;;4.37;3.40;;;-3.80;97.20;;;;;;6310733;28;20562;-76
2022/02/02 21:31:03;;;;;;;3.83;2.70;;;-3.70;97.00;;;;;;6310482;28;20440;-76
2022/02/02 21:34:08;;;;;;;3.33;2.97;;;-3.70;97.00;;;;;;6310235;28;20301;-76
2022/02/02 21:37:14;;;;;;;3.17;2.87;;;-3.60;97.00;;;;;;6310626;28;20274;-76
2022/02/02 21:40:23;;;;;;;7.63;2.80;;;-3.60;96.70;;;;;;6310241;28;20588;-76
2022/02/02 21:43:31;;;;;;;3.37;3.17;;;-3.60;96.70;;;;;;6310680;28;20321;-77
2022/02/02 21:46:36;;;;;;;3.33;3.20;;;-3.60;96.80;;;;;;6315276;28;20278;-76
2022/02/02 21:49:43;;;;;;;2.80;2.53;;;-3.60;96.70;;;;;;6314812;28;20294;-76
2022/02/02 21:52:51;;;;;;;3.53;3.23;;;-3.60;96.90;;;;;;6314899;28;20294;-76
2022/02/02 21:55:58;;;;;;;2.87;2.77;;;-3.60;96.90;;;;;;6316123;28;20295;-76
2022/02/02 21:59:04;;;;;;;3.43;3.13;;;-3.50;97.30;;;;;;6314571;28;20295;-76
2022/02/02 22:02:09;;;;;;;3.67;3.17;;;-3.50;97.30;;;;;;6315117;28;20294;-76
2022/02/02 22:05:14;;;;;;;3.10;2.90;;;-3.40;97.00;;;;;;6314491;28;20302;-76
2022/02/02 22:08:21;;;;;;;3.13;2.83;;;-3.40;97.20;;;;;;6314614;28;20306;-76
2022/02/02 22:11:27;;;;;;;5.90;3.50;;;-3.40;97.30;;;;;;6315395;28;20270;-76
2022/02/02 22:14:33;;;;;;;5.30;3.00;;;-3.30;97.30;;;;;;6314278;28;20428;-76
2022/02/02 22:17:38;;;;;;;3.13;3.00;;;-3.30;97.40;;;;;;6314514;28;20267;-76
2022/02/02 22:20:45;;;;;;;3.53;3.30;;;-3.30;97.50;;;;;;6313957;28;20301;-76
2022/02/02 22:23:50;;;;;;;3.27;3.13;;;-3.40;97.80;;;;;;6314177;28;20290;-76
2022/02/02 22:26:58;;;;;;;3.20;2.90;;;-3.30;97.90;;;;;;6314933;28;20270;-76
2022/02/02 22:30:04;;;;;;;4.30;3.10;;;-3.30;97.90;;;;;;6314428;28;20299;-76
2022/02/02 22:33:15;;;;;;;3.07;2.80;;;-3.30;97.90;;;;;;6314345;28;20286;-76
2022/02/02 22:36:20;;;;;;;3.47;3.17;;;-3.30;97.90;;;;;;6314618;28;20466;-76
2022/02/02 22:39:27;;;;;;;3.20;3.00;;;-3.20;97.90;;;;;;6313854;28;20303;-76
2022/02/02 22:42:34;;;;;;;3.50;3.00;;;-3.20;97.90;;;;;;6314315;28;20275;-76
2022/02/02 22:45:43;;;;;;;3.00;2.80;;;-3.20;98.00;;;;;;6313791;28;20306;-76
2022/02/02 22:48:48;;;;;;;3.20;3.00;;;-3.20;98.00;;;;;;6313834;28;20313;-76
2022/02/02 22:51:53;;;;;;;3.10;2.90;;;-3.10;98.10;;;;;;6314246;28;20524;-76
2022/02/02 22:54:58;;;;;;;3.00;2.90;;;-3.10;98.00;;;;;;6313177;28;20613;-76
2022/02/02 22:58:05;;;;;;;2.90;2.70;;;-3.10;98.00;;;;;;6314528;28;20270;-76
2022/02/02 23:01:12;;;;;;;3.07;2.83;;;-3.00;98.00;;;;;;6312575;28;20271;-76
2022/02/02 23:04:18;;;;;;;3.07;2.87;;;-3.00;97.90;;;;;;6313413;28;20603;-76
2022/02/02 23:07:23;;;;;;;3.10;2.90;;;-3.00;97.90;;;;;;6313754;28;20275;-76
2022/02/02 23:10:29;;;;;;;2.83;2.73;;;-3.00;98.10;;;;;;6313204;28;20364;-76
2022/02/02 23:13:38;;;;;;;3.30;3.10;;;-3.00;98.10;;;;;;6313036;28;20295;-76
2022/02/02 23:16:46;;;;;;;3.43;3.00;;;-2.90;98.10;;;;;;6313970;28;20272;-76
2022/02/02 23:19:51;;;;;;;3.00;2.70;;;-2.90;98.20;;;;;;6312705;28;20299;-76
2022/02/02 23:22:57;;;;;;;3.17;2.97;;;-2.90;98.10;;;;;;6313268;28;20271;-76
2022/02/02 23:26:03;;;;;;;4.97;3.57;;;-2.90;98.50;;;;;;6312699;28;20299;-77
2022/02/02 23:29:12;;;;;;;2.80;2.70;;;-2.90;98.70;;;;;;6312964;28;20301;-76
2022/02/02 23:32:20;;;;;;;2.83;2.73;;;-2.80;98.50;;;;;;6313685;28;20276;-76
2022/02/02 23:35:28;;;;;;;3.37;3.17;;;-2.80;98.40;;;;;;6312800;28;20304;-76
2022/02/02 23:38:33;;;;;;;2.90;2.80;;;-2.80;98.60;;;;;;6311876;28;20300;-77
2022/02/02 23:45:14;;;;;;;3.07;2.80;;;-2.80;98.50;;;;;;6312724;28;20307;-76
2022/02/02 23:48:24;;;;;;;3.23;3.03;;;-2.80;98.70;;;;;;6312503;28;20268;-77
2022/02/02 23:51:35;;;;;;;2.53;2.43;;;-2.80;98.90;;;;;;6312076;28;20271;-76
2022/02/02 23:54:45;;;;;;;2.77;2.60;;;-2.70;98.60;;;;;;6312084;28;20311;-76
2022/02/02 23:58:00;;;;;;;2.83;2.73;;;-2.70;99.10;;;;;;6312206;28;20277;-76
